Aérodrome :
LOGIN :

S'inscrire | Disclaimer

   EN    FR    IT 

 










Légende :    VFR   VFR Marginal   IFR   IFR Intensif   IFR Très Intensif
Visi : 
Plafond : 
>= 8 km
>= 3000ft
5 à 8 km
1000 à 3000 ft
1500m à 5 km
500 à 1000 ft
800 à 1500m
200 à 500 ft
< 800m
< 200 ft
Symboles :   Orages  Brouillard  Fortes neiges  Fortes précipitations  Vent > 20 kt
SIGMETs :   Divers  Orages  Givrage  Turbulence  Onde Orograph.  Cendres Volcan.







- Altitude de l'aérodrome : 141 ft
- Code IATA : SKS


EKSP - Srydstrup Vojens

DERNIER METAR :
  • 121720Z 20005KT 9999 FEW035 M02/M03 Q1004

METARs EXPIRÉS :
  • 121650Z 22004KT CAVOK M03/M04 Q1003 RMK FEW200
  • 121620Z 24005KT CAVOK M03/M04 Q1003 RMK FEW200
  • 121550Z 23005KT CAVOK M03/M04 Q1003
  • 121520Z 26004KT 9999 FEW028 SCT200 M02/M03 Q1002
  • 121450Z 27005KT 9999 FEW028 SCT200 M01/M03 Q1002

TAF TAF EKSP
Valide du 12 à 18h jusqu'au 13 à 18h UTC


121700Z 1218/1318 21008KT 9999 SCT020 BKN080
TEMPO 1218/1305 3000 -SHRASN BR BKN006 SCT020CB
BECMG 1305/1307 19012KT 6000 -RADZ BKN008
TEMPO 1307/1315 18018G30KT 2500 RASN BR BKN006 SCT020TCU
TEMPO 1315/1318 18012G22KT 2500 RASN BR BKN003 SCT020TCU
Pas de NOTAMs connus pour ce terrain.



MET'MAP, la Météo Aéronautique d'un coup d'oeil ! - Copyright ORBIFLY Décembre 2007 - Disclaimer

ORBIFLY MET'MAP TEAM :

Programmation & Développement : Alexandra Zaïnal
Conception & Développement : Baudouin d'Aumeries
Co-Programmation & Développement : Marc-Olivier Méhu
Soutien technique & logistique : Manuel Goepfert

Contact : metmap@orbifly.com




SOURCES & CREDITS :

   NOAA